Time;durP1;ratioP1;P1;durP2;ratioP2;P2;SDS_P1;SDS_P2;PMS_P1;PMS_P2;Temp;Humidity;BMP_temperature;BMP_pressure;BME280_temperature;BME280_humidity;BME280_pressure;Samples;Min_cycle;Max_cycle;Signal;HPM_P1;HPM_P2
2023/05/06 00:02:09;;;;;;;6.20;5.22;;;10.90;99.90;;;;;;5009484;28;20028;-81
2023/05/06 00:04:34;;;;;;;5.80;5.20;;;10.90;99.90;;;;;;5026334;28;20124;-80
2023/05/06 00:07:00;;;;;;;77.63;10.00;;;10.80;99.90;;;;;;5007492;28;20040;-80
2023/05/06 00:09:26;;;;;;;127.10;12.98;;;10.70;99.90;;;;;;5022007;28;20036;-80
2023/05/06 00:11:52;;;;;;;73.93;9.63;;;10.60;99.90;;;;;;5009935;28;20051;-80
2023/05/06 00:14:17;;;;;;;106.95;11.70;;;10.60;99.90;;;;;;5025804;28;20025;-80
2023/05/06 00:16:43;;;;;;;36.92;9.13;;;10.50;99.90;;;;;;5040624;28;20021;-79
2023/05/06 00:19:09;;;;;;;11.27;6.80;;;10.60;99.90;;;;;;5008859;28;20029;-80
2023/05/06 00:21:34;;;;;;;5.47;4.95;;;10.60;99.90;;;;;;5010415;28;20033;-79
2023/05/06 00:24:00;;;;;;;6.88;6.15;;;10.60;99.90;;;;;;5021849;28;20063;-81
2023/05/06 00:26:25;;;;;;;91.63;9.70;;;10.70;99.90;;;;;;5037495;28;20032;-81
2023/05/06 00:28:51;;;;;;;61.30;7.68;;;10.60;99.90;;;;;;5006460;28;20068;-81
2023/05/06 00:31:16;;;;;;;64.72;8.73;;;10.50;99.90;;;;;;5007641;28;20025;-81
2023/05/06 00:33:43;;;;;;;172.50;13.68;;;10.40;99.90;;;;;;5038250;28;20029;-81
2023/05/06 00:36:08;;;;;;;50.22;6.50;;;10.50;99.90;;;;;;5041005;28;20037;-80
2023/05/06 00:38:34;;;;;;;289.75;15.77;;;10.50;99.90;;;;;;5023613;28;20036;-81
2023/05/06 00:41:00;;;;;;;96.90;9.40;;;10.60;99.90;;;;;;5025839;28;20371;-81
2023/05/06 00:43:26;;;;;;;128.75;10.25;;;10.50;99.90;;;;;;5007847;28;20064;-81
2023/05/06 00:45:52;;;;;;;52.63;6.95;;;10.40;99.90;;;;;;5040846;28;20037;-80
2023/05/06 00:48:17;;;;;;;31.50;6.65;;;10.40;99.90;;;;;;5022610;28;20489;-81
2023/05/06 00:50:43;;;;;;;6.40;5.72;;;10.40;99.90;;;;;;5006508;28;20443;-81
2023/05/06 00:53:09;;;;;;;5.07;4.10;;;10.40;99.90;;;;;;5023078;28;20033;-81
2023/05/06 00:55:35;;;;;;;159.95;12.35;;;10.30;99.90;;;;;;5008179;28;20120;-81
2023/05/06 00:58:00;;;;;;;48.45;7.70;;;10.30;99.90;;;;;;5025641;28;20135;-81
2023/05/06 01:00:26;;;;;;;5.65;5.10;;;10.20;99.90;;;;;;5009382;28;20041;-80
2023/05/06 01:02:51;;;;;;;5.07;4.57;;;10.30;99.90;;;;;;5001747;28;20414;-81
2023/05/06 01:05:19;;;;;;;4.43;4.03;;;10.30;99.90;;;;;;5009040;28;20080;-81
2023/05/06 01:07:51;;;;;;;77.97;10.00;;;10.20;99.90;;;;;;5025391;28;20032;-81
2023/05/06 01:10:26;;;;;;;57.97;10.07;;;10.20;99.90;;;;;;5024170;28;20044;-81
2023/05/06 01:13:00;;;;;;;130.95;11.82;;;10.20;99.90;;;;;;5004882;28;20421;-81
2023/05/06 01:15:33;;;;;;;6.13;5.53;;;10.10;99.90;;;;;;5041809;28;20044;-81
2023/05/06 01:18:00;;;;;;;10.18;7.00;;;10.10;99.90;;;;;;5024249;28;20036;-81
2023/05/06 01:20:26;;;;;;;55.97;9.38;;;10.20;99.90;;;;;;5005472;28;20045;-81
2023/05/06 01:22:51;;;;;;;5.55;5.03;;;10.30;99.90;;;;;;5024788;28;20044;-81
2023/05/06 01:25:19;;;;;;;74.40;8.82;;;10.40;99.90;;;;;;4999840;28;20063;-81
2023/05/06 01:27:44;;;;;;;158.18;12.00;;;10.30;99.90;;;;;;5023031;28;20564;-81
2023/05/06 01:30:10;;;;;;;73.25;9.32;;;10.20;99.90;;;;;;5023715;28;20234;-81
2023/05/06 01:33:03;;;;;;;118.53;11.85;;;10.10;99.90;;;;;;5026029;28;20033;-81
2023/05/06 01:35:41;;;;;;;80.28;10.15;;;10.00;99.90;;;;;;5019360;28;20032;-81
2023/05/06 01:38:35;;;;;;;96.18;11.82;;;10.00;99.90;;;;;;5040359;28;20507;-81
2023/05/06 01:41:01;;;;;;;134.95;12.93;;;9.90;99.90;;;;;;5027896;28;20040;-81
2023/05/06 01:43:28;;;;;;;150.98;11.98;;;9.80;99.90;;;;;;5010590;28;20092;-81
2023/05/06 01:45:54;;;;;;;114.50;11.25;;;9.80;99.90;;;;;;5012083;28;20531;-81
2023/05/06 01:48:26;;;;;;;47.28;7.28;;;9.80;99.90;;;;;;5012988;28;20033;-81
2023/05/06 01:50:52;;;;;;;116.88;11.05;;;9.70;99.90;;;;;;5009635;28;20067;-81
2023/05/06 01:53:18;;;;;;;113.95;9.60;;;9.70;99.90;;;;;;5038058;28;20140;-81
2023/05/06 01:55:43;;;;;;;115.25;8.73;;;9.60;99.90;;;;;;5027684;28;20021;-81
2023/05/06 01:58:09;;;;;;;72.07;8.20;;;9.80;99.90;;;;;;5010910;28;20029;-81
2023/05/06 02:00:36;;;;;;;218.77;14.30;;;9.80;99.90;;;;;;5010538;28;20029;-81
2023/05/06 02:03:01;;;;;;;55.83;10.68;;;9.50;99.90;;;;;;5024652;28;20037;-80
2023/05/06 02:05:27;;;;;;;124.22;9.32;;;9.50;99.90;;;;;;5012216;28;20063;-81
2023/05/06 02:07:52;;;;;;;115.15;9.23;;;9.40;99.90;;;;;;5026339;28;20080;-81
2023/05/06 02:10:18;;;;;;;171.38;10.68;;;9.40;99.90;;;;;;5039493;28;20524;-80
2023/05/06 02:12:44;;;;;;;333.17;15.30;;;9.30;99.90;;;;;;5029316;28;20056;-80
2023/05/06 02:15:10;;;;;;;205.55;14.13;;;9.20;99.90;;;;;;5009539;28;20067;-80
2023/05/06 02:17:36;;;;;;;186.20;13.05;;;9.30;99.90;;;;;;5029235;28;20396;-80
2023/05/06 02:20:02;;;;;;;251.30;17.40;;;9.20;99.90;;;;;;5025919;28;20120;-80
2023/05/06 02:22:27;;;;;;;306.80;17.55;;;9.10;99.90;;;;;;5025597;28;20501;-81
2023/05/06 02:24:53;;;;;;;230.63;13.82;;;8.80;99.90;;;;;;5007403;28;20052;-81
2023/05/06 02:27:18;;;;;;;359.10;15.27;;;9.10;99.90;;;;;;5017085;28;20059;-81
2023/05/06 02:29:44;;;;;;;310.48;18.30;;;8.80;99.90;;;;;;5010979;28;20105;-81
2023/05/06 02:32:10;;;;;;;261.48;13.68;;;8.70;99.90;;;;;;5012908;28;20338;-80
2023/05/06 02:34:35;;;;;;;325.55;15.80;;;9.00;99.90;;;;;;5042827;28;20061;-81
2023/05/06 02:37:01;;;;;;;269.92;15.65;;;8.90;99.90;;;;;;5025035;28;20033;-81
2023/05/06 02:39:26;;;;;;;66.07;10.75;;;8.90;99.90;;;;;;5027996;28;20924;-80
2023/05/06 02:41:52;;;;;;;185.75;14.88;;;8.40;99.90;;;;;;5000880;28;20420;-80
2023/05/06 02:44:17;;;;;;;86.25;10.75;;;9.00;99.90;;;;;;5027301;28;20405;-80
2023/05/06 02:46:43;;;;;;;9.60;7.43;;;9.10;99.90;;;;;;5026056;28;20041;-80
2023/05/06 02:49:09;;;;;;;129.77;11.13;;;8.90;99.90;;;;;;5008919;28;20033;-80
2023/05/06 02:51:35;;;;;;;130.02;13.23;;;8.90;99.90;;;;;;5028500;28;20044;-81
2023/05/06 02:54:00;;;;;;;56.50;9.35;;;8.80;99.90;;;;;;5010001;28;20094;-79
2023/05/06 02:56:26;;;;;;;16.60;9.18;;;9.10;99.90;;;;;;5010710;28;20033;-79
2023/05/06 02:58:52;;;;;;;9.55;6.15;;;9.00;99.90;;;;;;5007655;28;20037;-79
2023/05/06 03:01:18;;;;;;;13.10;9.65;;;;;;;;;;5010383;28;20037;-80
2023/05/06 03:03:44;;;;;;;10.70;7.47;;;9.00;99.90;;;;;;5028170;28;20040;-79
2023/05/06 03:06:10;;;;;;;83.90;10.88;;;8.90;99.90;;;;;;5022817;28;20120;-81
2023/05/06 03:08:35;;;;;;;139.57;12.65;;;8.80;99.90;;;;;;5011828;28;20124;-80
2023/05/06 03:11:01;;;;;;;147.23;11.52;;;8.90;99.90;;;;;;5023190;28;20108;-79
2023/05/06 03:13:26;;;;;;;131.25;12.23;;;8.70;99.90;;;;;;5027513;28;20056;-80
2023/05/06 03:15:53;;;;;;;62.55;10.85;;;8.80;99.90;;;;;;5009112;28;20056;-80
2023/05/06 03:18:18;;;;;;;33.88;10.23;;;8.80;99.90;;;;;;5026603;28;20516;-80
2023/05/06 03:20:47;;;;;;;32.10;12.55;;;8.70;99.90;;;;;;5011402;28;20037;-80
2023/05/06 03:23:13;;;;;;;122.32;16.02;;;8.60;99.90;;;;;;5038474;28;20033;-80
2023/05/06 03:25:38;;;;;;;58.22;13.55;;;8.70;99.90;;;;;;5010634;28;20048;-79
2023/05/06 03:28:04;;;;;;;22.05;11.93;;;8.60;99.90;;;;;;5026568;28;20622;-80
2023/05/06 03:30:30;;;;;;;17.77;11.40;;;8.60;99.90;;;;;;5039836;28;20029;-80
2023/05/06 03:32:56;;;;;;;17.73;11.23;;;8.50;99.90;;;;;;5025489;28;20033;-80
2023/05/06 03:35:22;;;;;;;17.95;11.88;;;8.40;99.90;;;;;;5026011;28;20029;-80
2023/05/06 03:37:47;;;;;;;19.75;11.07;;;8.40;99.90;;;;;;5028120;28;20030;-80
2023/05/06 03:40:13;;;;;;;13.52;9.45;;;8.30;99.90;;;;;;5009210;28;20033;-80
2023/05/06 03:42:38;;;;;;;14.60;8.77;;;8.40;99.90;;;;;;5010538;28;20063;-80
2023/05/06 03:45:05;;;;;;;14.30;9.73;;;8.50;99.90;;;;;;5009688;28;20556;-80
2023/05/06 03:47:31;;;;;;;10.82;7.80;;;8.60;99.90;;;;;;5026404;28;20489;-80
2023/05/06 03:49:58;;;;;;;9.85;7.80;;;8.70;99.90;;;;;;5008041;28;20119;-79
2023/05/06 03:52:23;;;;;;;8.32;6.18;;;8.50;99.90;;;;;;5008497;28;20037;-80
2023/05/06 03:54:49;;;;;;;11.13;8.48;;;8.60;99.90;;;;;;5009223;28;20616;-79
2023/05/06 03:57:15;;;;;;;9.80;7.00;;;8.50;99.90;;;;;;5007335;28;20036;-80
2023/05/06 03:59:40;;;;;;;10.88;8.07;;;8.40;99.90;;;;;;5002295;28;20033;-81
2023/05/06 04:02:06;;;;;;;13.75;9.48;;;8.40;99.90;;;;;;5009285;28;20032;-79
2023/05/06 04:04:31;;;;;;;18.55;9.65;;;8.30;99.90;;;;;;5005109;28;20037;-79
2023/05/06 04:06:57;;;;;;;19.10;7.78;;;8.30;99.90;;;;;;4996113;28;20033;-80
2023/05/06 04:09:23;;;;;;;28.42;9.80;;;8.20;99.90;;;;;;5001172;28;20037;-80
2023/05/06 04:11:48;;;;;;;17.90;10.45;;;8.20;99.90;;;;;;5008026;28;20037;-80
2023/05/06 04:14:14;;;;;;;14.85;9.35;;;8.20;99.90;;;;;;5022546;28;20112;-78
2023/05/06 04:16:40;;;;;;;13.88;9.35;;;8.30;99.90;;;;;;5021144;28;20044;-79
2023/05/06 04:19:05;;;;;;;15.90;9.60;;;8.30;99.90;;;;;;5007149;28;20025;-79
2023/05/06 04:21:31;;;;;;;14.27;9.48;;;8.20;99.90;;;;;;5006828;28;20043;-79
2023/05/06 04:23:57;;;;;;;14.70;9.77;;;8.20;99.90;;;;;;5005924;28;20546;-80
2023/05/06 04:26:23;;;;;;;16.65;10.93;;;8.30;99.90;;;;;;5022470;28;20503;-80
2023/05/06 04:28:51;;;;;;;16.70;10.63;;;8.10;99.90;;;;;;5022501;28;20036;-80
2023/05/06 04:31:17;;;;;;;17.85;11.15;;;8.10;99.90;;;;;;4998000;28;20030;-80
2023/05/06 04:33:43;;;;;;;18.80;11.25;;;8.20;99.90;;;;;;5008423;28;20031;-80
2023/05/06 04:36:08;;;;;;;31.25;11.63;;;8.30;99.90;;;;;;5005634;28;20025;-80
2023/05/06 04:38:36;;;;;;;21.63;11.93;;;8.30;99.90;;;;;;5012079;28;20033;-80
2023/05/06 04:41:02;;;;;;;22.60;13.18;;;8.30;99.90;;;;;;4990564;28;20400;-80
2023/05/06 04:43:28;;;;;;;24.58;13.48;;;8.40;99.90;;;;;;5020550;28;20029;-80
2023/05/06 04:45:54;;;;;;;26.85;13.30;;;8.50;99.90;;;;;;5019513;28;20048;-80
2023/05/06 04:48:23;;;;;;;21.55;12.57;;;8.50;99.90;;;;;;5023717;28;20402;-80
2023/05/06 04:50:49;;;;;;;31.73;14.48;;;8.70;99.90;;;;;;5025092;28;20044;-80
2023/05/06 04:53:14;;;;;;;28.50;14.30;;;8.70;99.90;;;;;;5021489;28;20053;-80
2023/05/06 04:55:40;;;;;;;36.08;14.35;;;8.80;99.90;;;;;;5015977;28;20068;-80
2023/05/06 04:58:06;;;;;;;36.10;16.52;;;8.90;99.90;;;;;;5022807;28;20037;-80
2023/05/06 05:00:32;;;;;;;40.70;18.58;;;9.00;99.90;;;;;;5024429;28;20871;-80
2023/05/06 05:02:58;;;;;;;36.08;16.35;;;9.10;99.90;;;;;;5005940;28;20029;-80
2023/05/06 05:05:24;;;;;;;38.92;17.30;;;9.30;99.90;;;;;;5022789;28;20086;-80
2023/05/06 05:07:50;;;;;;;36.15;15.55;;;9.40;99.90;;;;;;5007902;28;20497;-80
2023/05/06 05:10:15;;;;;;;37.97;15.85;;;9.60;99.90;;;;;;5024949;28;20182;-80
2023/05/06 05:12:41;;;;;;;33.85;15.80;;;9.70;99.90;;;;;;5008803;28;20416;-80
2023/05/06 05:15:07;;;;;;;46.95;18.60;;;9.90;99.90;;;;;;5025623;28;20385;-80
2023/05/06 05:17:33;;;;;;;51.25;21.02;;;9.90;99.90;;;;;;5021014;28;20044;-80
2023/05/06 05:19:58;;;;;;;63.80;21.70;;;10.10;99.90;;;;;;5025554;28;20037;-80
2023/05/06 05:22:24;;;;;;;63.00;21.67;;;10.20;99.90;;;;;;5027080;28;20032;-80
2023/05/06 05:24:50;;;;;;;65.60;22.42;;;10.40;99.90;;;;;;5009915;28;20425;-80
2023/05/06 05:27:16;;;;;;;62.65;22.48;;;10.50;99.90;;;;;;5007337;28;20240;-80
2023/05/06 05:29:41;;;;;;;67.63;23.33;;;10.60;99.90;;;;;;5010830;28;20742;-80
2023/05/06 05:32:07;;;;;;;74.07;24.95;;;10.80;99.90;;;;;;5024502;28;20025;-80
2023/05/06 05:34:32;;;;;;;74.25;26.50;;;10.90;99.90;;;;;;5010353;28;20558;-80
2023/05/06 05:36:58;;;;;;;71.45;26.05;;;11.10;99.90;;;;;;5011614;28;20037;-80
2023/05/06 05:39:24;;;;;;;76.10;27.58;;;11.30;99.90;;;;;;5011377;28;20481;-80
2023/05/06 05:41:49;;;;;;;75.70;27.13;;;11.40;99.90;;;;;;5011043;28;20026;-79
2023/05/06 05:44:15;;;;;;;78.30;28.92;;;11.60;99.90;;;;;;5025367;28;20477;-81
2023/05/06 05:46:41;;;;;;;85.97;28.15;;;11.70;99.90;;;;;;5013647;28;20033;-81
2023/05/06 05:49:06;;;;;;;80.45;28.73;;;11.90;99.90;;;;;;5008179;28;20368;-81
2023/05/06 05:51:32;;;;;;;90.85;31.10;;;12.10;99.90;;;;;;5026977;28;20033;-79
2023/05/06 05:53:58;;;;;;;82.53;29.20;;;12.20;99.90;;;;;;5026014;28;20108;-81
2023/05/06 05:56:24;;;;;;;75.85;30.17;;;12.40;99.90;;;;;;5025252;28;20032;-82
2023/05/06 05:58:49;;;;;;;69.95;24.75;;;12.60;99.90;;;;;;5026880;28;20029;-80
2023/05/06 06:01:15;;;;;;;63.78;25.08;;;12.80;99.90;;;;;;5007753;28;20022;-80
2023/05/06 06:03:41;;;;;;;66.38;26.80;;;12.90;99.90;;;;;;5011390;28;20025;-79
2023/05/06 06:06:07;;;;;;;70.60;29.75;;;13.10;99.90;;;;;;5014666;28;20044;-80
2023/05/06 06:08:32;;;;;;;70.18;29.48;;;13.30;99.90;;;;;;5009829;28;20841;-80
2023/05/06 06:10:58;;;;;;;60.53;28.80;;;13.50;99.90;;;;;;5026767;28;20064;-80
2023/05/06 06:13:24;;;;;;;63.88;29.67;;;13.60;99.90;;;;;;5025473;28;20040;-80
2023/05/06 06:15:49;;;;;;;54.83;26.02;;;13.90;99.90;;;;;;5025745;28;20137;-79
2023/05/06 06:18:15;;;;;;;55.22;26.75;;;14.10;99.90;;;;;;5025178;28;20061;-79
2023/05/06 06:20:40;;;;;;;55.60;26.15;;;14.30;99.90;;;;;;5010032;28;20941;-80
2023/05/06 06:23:06;;;;;;;47.90;25.33;;;14.30;99.90;;;;;;5025864;28;20033;-79
2023/05/06 06:25:32;;;;;;;37.00;20.80;;;14.60;99.90;;;;;;5024437;28;20075;-79
2023/05/06 06:27:57;;;;;;;28.60;16.52;;;14.70;99.90;;;;;;5010246;28;20051;-79
2023/05/06 06:30:23;;;;;;;30.55;19.48;;;14.90;99.90;;;;;;5041239;28;20404;-79
2023/05/06 06:32:50;;;;;;;32.65;19.55;;;15.10;99.90;;;;;;5026004;28;20079;-79
2023/05/06 06:35:16;;;;;;;29.60;18.50;;;15.30;99.90;;;;;;5009594;28;20538;-80
2023/05/06 06:37:41;;;;;;;23.92;16.35;;;15.40;99.90;;;;;;5006770;28;20037;-79
2023/05/06 06:40:09;;;;;;;17.30;12.18;;;15.60;99.90;;;;;;5039433;28;20052;-79
2023/05/06 06:42:34;;;;;;;19.20;14.32;;;15.70;99.90;;;;;;5012221;28;20053;-79
2023/05/06 06:45:00;;;;;;;23.30;15.80;;;16.00;99.90;;;;;;5027878;28;20069;-79
2023/05/06 06:47:26;;;;;;;29.05;17.20;;;16.10;99.90;;;;;;5025544;28;20416;-78
2023/05/06 06:49:51;;;;;;;20.70;14.23;;;16.30;99.90;;;;;;5026657;28;20130;-79
2023/05/06 06:52:17;;;;;;;8.50;6.00;;;16.50;99.90;;;;;;5044117;28;20544;-79
2023/05/06 06:54:43;;;;;;;19.90;14.05;;;16.50;99.90;;;;;;5011718;28;20052;-79
2023/05/06 06:57:08;;;;;;;19.80;13.90;;;16.90;99.90;;;;;;5038464;28;20025;-79
2023/05/06 06:59:34;;;;;;;19.17;12.32;;;17.00;99.90;;;;;;5042688;28;20044;-79
2023/05/06 07:01:59;;;;;;;21.60;14.05;;;17.20;99.90;;;;;;5027167;28;20532;-79
2023/05/06 07:04:25;;;;;;;14.18;9.10;;;17.40;99.90;;;;;;5041078;28;20033;-79
2023/05/06 07:06:51;;;;;;;12.13;8.50;;;17.60;99.90;;;;;;5008776;28;20540;-80
2023/05/06 07:09:16;;;;;;;14.23;10.32;;;17.50;99.90;;;;;;5025219;28;20509;-79
2023/05/06 07:11:42;;;;;;;17.00;12.48;;;17.70;99.90;;;;;;5009913;28;20393;-78
2023/05/06 07:14:07;;;;;;;16.38;11.43;;;17.90;99.90;;;;;;5008101;28;20075;-78
2023/05/06 07:16:33;;;;;;;10.90;8.15;;;18.10;99.90;;;;;;5025716;28;20044;-78
2023/05/06 07:18:59;;;;;;;5.40;4.35;;;18.10;99.90;;;;;;5024749;28;20044;-78
2023/05/06 07:21:26;;;;;;;12.10;9.77;;;18.10;99.90;;;;;;5005712;28;20048;-78
2023/05/06 07:23:51;;;;;;;7.57;6.05;;;18.20;99.90;;;;;;5022380;28;20033;-78
2023/05/06 07:26:17;;;;;;;16.35;11.13;;;18.40;99.90;;;;;;5025217;28;20412;-79
2023/05/06 07:28:43;;;;;;;15.55;9.98;;;18.70;99.90;;;;;;5027084;28;20033;-78
2023/05/06 07:31:08;;;;;;;14.10;10.07;;;19.00;99.90;;;;;;5024830;28;20036;-78
2023/05/06 07:33:34;;;;;;;10.23;7.45;;;19.00;99.90;;;;;;5039946;28;20669;-78
2023/05/06 07:35:59;;;;;;;7.60;6.55;;;18.90;99.90;;;;;;5005693;28;20039;-78
2023/05/06 07:38:25;;;;;;;6.80;5.18;;;19.10;99.90;;;;;;5023696;28;20100;-78
2023/05/06 07:40:50;;;;;;;15.68;9.00;;;19.30;99.90;;;;;;5008287;28;20625;-79
2023/05/06 07:43:16;;;;;;;11.90;8.82;;;19.60;99.90;;;;;;5005472;28;20052;-79
2023/05/06 07:45:42;;;;;;;11.43;6.85;;;19.80;99.90;;;;;;5025345;28;20036;-79
2023/05/06 07:48:07;;;;;;;12.32;8.85;;;19.90;99.90;;;;;;5040637;28;20432;-79
2023/05/06 07:50:33;;;;;;;5.65;4.40;;;20.10;99.90;;;;;;5024993;28;20104;-79
2023/05/06 07:52:59;;;;;;;10.18;6.60;;;20.00;99.90;;;;;;5024146;28;20110;-79
2023/05/06 07:55:24;;;;;;;5.88;5.05;;;20.10;99.90;;;;;;5023506;28;20493;-79
2023/05/06 07:57:50;;;;;;;7.30;5.82;;;20.30;99.90;;;;;;5024917;28;20323;-79
2023/05/06 08:00:16;;;;;;;9.95;5.80;;;20.30;99.90;;;;;;5024160;28;20060;-79
2023/05/06 08:02:43;;;;;;;6.75;5.15;;;20.40;99.90;;;;;;5023815;28;20033;-79
2023/05/06 08:05:09;;;;;;;6.65;5.10;;;20.70;99.90;;;;;;5005593;28;20061;-79
2023/05/06 08:07:35;;;;;;;10.60;7.07;;;20.60;99.90;;;;;;5021543;28;20447;-79
2023/05/06 08:10:01;;;;;;;7.75;5.93;;;21.00;99.90;;;;;;5007509;28;20037;-79
2023/05/06 08:12:26;;;;;;;4.97;3.55;;;21.20;99.90;;;;;;5037283;28;20586;-80
2023/05/06 08:14:53;;;;;;;5.10;3.65;;;21.10;99.90;;;;;;5002687;28;20528;-79
2023/05/06 08:17:19;;;;;;;8.40;5.93;;;21.10;99.90;;;;;;5039869;28;20376;-79
2023/05/06 08:19:44;;;;;;;6.03;3.53;;;21.30;99.90;;;;;;5008794;28;20037;-78
2023/05/06 08:22:10;;;;;;;9.00;5.45;;;21.30;99.90;;;;;;5006802;28;20028;-78
2023/05/06 08:24:36;;;;;;;10.43;5.55;;;21.60;99.90;;;;;;5039791;28;20066;-78
2023/05/06 08:27:02;;;;;;;13.65;5.70;;;22.00;99.90;;;;;;5006281;28;20032;-78
2023/05/06 08:29:27;;;;;;;7.85;5.00;;;22.10;99.90;;;;;;5008435;28;20033;-79
2023/05/06 08:31:53;;;;;;;5.57;4.20;;;22.40;99.90;;;;;;5042241;28;20084;-78
2023/05/06 08:34:20;;;;;;;7.82;5.85;;;22.40;99.90;;;;;;5018854;28;20040;-78
2023/05/06 08:36:46;;;;;;;7.68;4.60;;;22.70;99.90;;;;;;5021964;28;20576;-78
2023/05/06 08:39:13;;;;;;;4.20;3.42;;;22.80;99.90;;;;;;5024867;28;20594;-78
2023/05/06 08:41:39;;;;;;;6.78;3.97;;;23.00;99.90;;;;;;5025638;28;20516;-77
2023/05/06 08:44:05;;;;;;;5.47;4.22;;;23.10;99.90;;;;;;5007051;28;21546;-78
2023/05/06 08:46:30;;;;;;;4.85;3.15;;;23.20;99.90;;;;;;5039780;28;20025;-77
2023/05/06 08:48:57;;;;;;;4.88;3.13;;;23.30;99.90;;;;;;5026473;28;20029;-77
2023/05/06 08:51:26;;;;;;;3.50;2.65;;;23.30;99.90;;;;;;5009847;28;20661;-77
2023/05/06 08:53:51;;;;;;;2.63;1.70;;;23.20;99.90;;;;;;5011362;28;20519;-77
2023/05/06 08:56:17;;;;;;;2.95;1.70;;;23.50;99.90;;;;;;5008139;28;20104;-78
2023/05/06 08:58:45;;;;;;;2.28;1.75;;;23.80;99.90;;;;;;5042137;28;20025;-78
2023/05/06 09:01:12;;;;;;;2.50;1.80;;;23.90;99.90;;;;;;5007694;28;20684;-78
2023/05/06 09:03:37;;;;;;;3.13;1.90;;;24.00;99.90;;;;;;5026959;28;20026;-77
2023/05/06 09:06:03;;;;;;;3.83;1.63;;;24.20;99.90;;;;;;5007882;28;20108;-78
2023/05/06 09:08:29;;;;;;;5.18;1.85;;;24.30;99.90;;;;;;5024838;28;20025;-77
2023/05/06 09:10:54;;;;;;;4.15;2.13;;;24.40;99.90;;;;;;5027976;28;20145;-78
2023/05/06 09:13:20;;;;;;;4.70;1.65;;;24.70;99.90;;;;;;5039525;28;20045;-77
2023/05/06 09:15:46;;;;;;;4.55;1.88;;;24.90;99.90;;;;;;5040085;28;20400;-78
2023/05/06 09:18:12;;;;;;;3.60;1.30;;;25.00;99.90;;;;;;5044028;28;20048;-78
2023/05/06 09:20:47;;;;;;;2.88;1.63;;;25.00;99.90;;;;;;5044716;28;20440;-78
2023/05/06 09:23:14;;;;;;;2.22;1.35;;;25.30;99.90;;;;;;5042552;28;20037;-78
2023/05/06 09:25:40;;;;;;;3.17;1.73;;;25.40;99.90;;;;;;5039050;28;20096;-78
2023/05/06 09:28:07;;;;;;;3.72;1.45;;;25.80;99.90;;;;;;5043868;28;22512;-78
2023/05/06 09:30:32;;;;;;;5.72;2.40;;;25.80;99.90;;;;;;5027350;28;20037;-78
2023/05/06 09:32:58;;;;;;;6.28;1.85;;;26.10;99.90;;;;;;5011061;28;20041;-77
2023/05/06 09:35:27;;;;;;;3.17;1.48;;;26.00;99.90;;;;;;5024866;28;20029;-78
2023/05/06 09:37:53;;;;;;;5.30;1.77;;;25.80;99.90;;;;;;5009273;28;20137;-78
2023/05/06 09:40:19;;;;;;;6.82;1.73;;;26.00;99.90;;;;;;5022810;28;20167;-78
2023/05/06 09:42:45;;;;;;;3.30;1.30;;;26.10;99.90;;;;;;5021415;28;20033;-78
2023/05/06 09:45:10;;;;;;;1.50;1.20;;;26.20;99.90;;;;;;5026564;28;20130;-78
2023/05/06 09:47:36;;;;;;;1.08;0.90;;;26.40;99.90;;;;;;5042877;28;20041;-77
2023/05/06 09:50:02;;;;;;;3.53;0.98;;;26.40;99.90;;;;;;5026411;28;20033;-78
2023/05/06 09:52:28;;;;;;;1.77;0.80;;;26.70;99.90;;;;;;5045261;28;20052;-78
2023/05/06 09:54:54;;;;;;;1.60;1.00;;;27.20;99.90;;;;;;5009773;28;20739;-77
2023/05/06 09:57:21;;;;;;;2.35;1.00;;;27.10;99.90;;;;;;5038368;28;20029;-78
2023/05/06 09:59:46;;;;;;;2.55;1.10;;;26.80;99.90;;;;;;5027268;28;20119;-80
2023/05/06 10:02:12;;;;;;;2.67;1.15;;;26.70;99.90;;;;;;5038837;28;20136;-80
2023/05/06 10:04:39;;;;;;;1.58;0.80;;;27.00;99.90;;;;;;5023819;28;20520;-80
2023/05/06 10:07:05;;;;;;;1.17;0.70;;;26.90;99.90;;;;;;5025493;28;20069;-80
2023/05/06 10:09:31;;;;;;;5.30;0.90;;;27.00;99.90;;;;;;5026792;28;20033;-80
2023/05/06 10:11:56;;;;;;;0.55;0.52;;;27.10;99.90;;;;;;5026133;28;20041;-80
2023/05/06 10:14:22;;;;;;;2.08;1.00;;;27.20;99.90;;;;;;5041766;28;20154;-79
2023/05/06 10:16:48;;;;;;;1.38;0.80;;;27.30;99.90;;;;;;5009592;28;20082;-80
2023/05/06 10:19:14;;;;;;;1.90;0.75;;;27.70;99.90;;;;;;5027952;28;20029;-78
2023/05/06 10:21:40;;;;;;;1.45;0.88;;;27.90;99.90;;;;;;5009032;28;20032;-78
2023/05/06 10:24:07;;;;;;;4.90;0.82;;;28.10;99.90;;;;;;5027138;28;20032;-79
2023/05/06 10:26:35;;;;;;;4.57;1.08;;;28.20;99.90;;;;;;5024362;28;20722;-79
2023/05/06 10:29:03;;;;;;;3.22;0.80;;;28.40;99.90;;;;;;5007555;28;20489;-79
2023/05/06 10:31:29;;;;;;;2.95;0.70;;;28.60;99.90;;;;;;5026882;28;20013;-79
2023/05/06 10:33:54;;;;;;;2.35;0.88;;;28.90;98.90;;;;;;5041993;28;20041;-79
2023/05/06 10:36:24;;;;;;;1.58;0.90;;;28.90;99.70;;;;;;5037827;28;20060;-78
2023/05/06 10:38:55;;;;;;;2.60;0.80;;;28.90;96.40;;;;;;5007870;28;20025;-80
2023/05/06 10:41:21;;;;;;;1.52;1.00;;;28.80;96.60;;;;;;5013461;28;20040;-79
2023/05/06 10:43:48;;;;;;;2.63;0.80;;;28.60;96.50;;;;;;5008118;28;20025;-79
2023/05/06 10:46:16;;;;;;;2.53;0.70;;;28.70;97.60;;;;;;5007579;28;20396;-78
2023/05/06 10:49:13;;;;;;;0.80;0.60;;;28.80;97.60;;;;;;5008831;28;20037;-78
2023/05/06 10:51:39;;;;;;;;;;;28.90;96.20;;;;;;5058474;28;20516;-79
2023/05/06 10:54:07;;;;;;;;;;;29.10;96.20;;;;;;5039903;28;19924;-78
2023/05/06 10:56:34;;;;;;;1.40;0.80;;;29.30;95.40;;;;;;5036816;28;20376;-79
2023/05/06 10:59:07;;;;;;;0.80;0.60;;;29.30;94.50;;;;;;5009066;28;20029;-78
2023/05/06 11:01:33;;;;;;;2.13;0.88;;;29.50;92.30;;;;;;5041577;28;20056;-80
2023/05/06 11:04:07;;;;;;;2.90;0.63;;;29.70;94.50;;;;;;5040772;28;20029;-79
2023/05/06 11:06:45;;;;;;;0.40;0.40;;;29.70;94.80;;;;;;5021476;28;20457;-79
2023/05/06 11:09:18;;;;;;;1.08;0.55;;;29.70;90.50;;;;;;5008103;28;20049;-78
2023/05/06 11:12:05;;;;;;;1.95;0.73;;;30.00;85.10;;;;;;5039580;28;20389;-79
2023/05/06 11:14:33;;;;;;;1.73;1.00;;;30.30;90.70;;;;;;5034969;28;20034;-79
2023/05/06 11:17:00;;;;;;;2.28;1.10;;;30.00;90.30;;;;;;5007827;28;20052;-79
2023/05/06 11:19:30;;;;;;;2.92;0.80;;;30.20;87.00;;;;;;5025235;28;20535;-79
2023/05/06 11:21:57;;;;;;;1.08;0.57;;;30.10;90.00;;;;;;5023389;28;20515;-79
2023/05/06 11:24:26;;;;;;;1.10;0.70;;;30.00;90.20;;;;;;5041920;28;20029;-78
2023/05/06 11:26:51;;;;;;;0.73;0.60;;;30.30;88.30;;;;;;5039252;28;20381;-79
2023/05/06 11:29:17;;;;;;;0.93;0.60;;;30.80;81.50;;;;;;5008851;28;20052;-79
2023/05/06 11:31:43;;;;;;;2.72;0.80;;;30.80;87.30;;;;;;5007606;28;20039;-79
2023/05/06 11:34:13;;;;;;;1.20;0.65;;;30.90;89.10;;;;;;5020991;28;20039;-79
2023/05/06 11:37:07;;;;;;;2.20;0.70;;;31.00;86.90;;;;;;5023816;28;20030;-79
2023/05/06 11:39:33;;;;;;;2.63;1.20;;;31.20;87.70;;;;;;5024235;28;20484;-80
2023/05/06 11:42:05;;;;;;;2.78;0.70;;;31.40;81.40;;;;;;5023299;28;20029;-77
2023/05/06 11:44:35;;;;;;;2.40;0.73;;;31.60;84.50;;;;;;5037206;28;20048;-76
2023/05/06 11:47:05;;;;;;;3.42;0.77;;;31.60;82.30;;;;;;4329816;28;10000468;-76
2023/05/06 11:49:41;;;;;;;1.42;0.90;;;31.90;79.80;;;;;;5020007;28;20029;-77
2023/05/06 11:52:08;;;;;;;3.05;0.90;;;32.40;78.30;;;;;;5019946;28;20089;-76
2023/05/06 11:54:34;;;;;;;2.45;0.95;;;32.50;76.00;;;;;;5019351;28;20040;-77
2023/05/06 11:57:00;;;;;;;1.30;0.68;;;32.50;79.50;;;;;;5035841;28;20045;-77
2023/05/06 11:59:33;;;;;;;2.42;0.95;;;32.40;78.60;;;;;;5005781;28;20029;-76
2023/05/06 12:02:00;;;;;;;2.00;0.73;;;32.60;79.60;;;;;;5021929;28;20502;-77
2023/05/06 12:04:26;;;;;;;0.80;0.50;;;32.80;77.60;;;;;;5002749;28;20033;-76
2023/05/06 12:06:54;;;;;;;1.48;0.68;;;32.80;73.10;;;;;;5017882;28;20756;-76
2023/05/06 12:09:21;;;;;;;1.33;0.52;;;32.70;75.70;;;;;;5036351;28;20112;-77
2023/05/06 12:11:46;;;;;;;3.00;0.85;;;32.70;77.30;;;;;;5022799;28;20115;-76
2023/05/06 12:14:12;;;;;;;2.38;1.00;;;32.70;71.30;;;;;;5003421;28;20553;-76
2023/05/06 12:16:37;;;;;;;1.38;0.80;;;33.00;67.20;;;;;;5004989;28;20021;-76
2023/05/06 12:19:04;;;;;;;3.38;1.00;;;32.80;69.00;;;;;;5033486;28;20535;-76
2023/05/06 12:21:30;;;;;;;2.85;0.80;;;32.80;69.50;;;;;;5021203;28;20477;-76
2023/05/06 12:23:58;;;;;;;1.20;0.88;;;32.70;70.60;;;;;;5034122;28;20033;-76
2023/05/06 12:26:26;;;;;;;0.90;0.60;;;32.50;68.40;;;;;;5019714;28;20125;-76
2023/05/06 12:29:04;;;;;;;1.63;0.73;;;32.50;68.50;;;;;;5021499;28;20048;-77
2023/05/06 12:31:30;;;;;;;2.33;0.68;;;32.50;65.80;;;;;;5023131;28;20104;-76
2023/05/06 12:33:55;;;;;;;1.77;0.90;;;32.50;64.80;;;;;;5007230;28;20039;-75
2023/05/06 12:36:21;;;;;;;1.30;0.75;;;32.60;64.00;;;;;;5038951;28;20112;-76
2023/05/06 12:38:51;;;;;;;1.65;0.70;;;32.50;64.50;;;;;;5022278;28;20037;-77